Hovedside
METAR-TAF:

METAR-TAF

Lufthavner :

Sunan internasjonale lufthavn

Pyongyang, Nord-Korea

breddegrad: 39-02N, lengdegrad: 125-47E, høyde over havet: 36 m

METAR: fraværende

Tid: 03:59 (19:29 UTC)

Varsel

Denne rapporten ble laget for 15 timer og 49 minutter siden, klokken 03:40 UTC
Varsel gyldig fra 15. klokken 06 UTC til 16. klokken 06 UTC
Vind 10 kt fra Nord-nordvest
Sikt 10 km eller mer
ingen skyer under 1500 m og ingen bygeskyer

TAF: ZKPY 150340Z 1506/1606 34005MPS CAVOK TX08/1506Z TNM03/1521Z

Værobservasjoner og værvarsel for over 4000 flyplasser (METAR- og TAF-rapporter).

Tilgjengelige stasjoner er representert av de røde og gule prikkene på kartet.

Hold musepekeren over prikken for å se navnet på stasjonen.

Klikk så for å se værobservasjoner og -varsler.

For å forandre kartet kan du klikke på den grønne knappen med svart kryss for å zoome inn, på den grønne knappen med strek for å zoome ut, eller på de grønne pilene for å se tilstøtende kart.


METAR-TAF: